Time,TemperatureF,DewpointF,PressureIn,WindDirection,WindDirectionDegrees,WindSpeedMPH,WindSpeedGustMPH,Humidity,HourlyPrecipIn,Conditions,Clouds,dailyrainin,SolarRadiationWatts/m^2,SoftwareType,DateUTC
2013-08-01 00:02:00,60.9,59.2,30.01,SE,145,0.0,0.0,94,0.00,,,0.00,0,Wunderground v.1.15,2013-08-01 04:02:00,
2013-08-01 00:07:00,60.9,59.2,30.01,SE,145,0.0,0.0,94,0.00,,,0.00,0,Wunderground v.1.15,2013-08-01 04:07:00,
2013-08-01 00:12:00,60.7,59.0,30.01,SE,145,0.0,0.0,94,0.00,,,0.00,0,Wunderground v.1.15,2013-08-01 04:12:00,
2013-08-01 00:17:00,60.6,58.9,30.01,SE,145,0.0,0.0,94,0.00,,,0.00,0,Wunderground v.1.15,2013-08-01 04:17:00,
2013-08-01 00:22:00,60.4,58.7,30.01,SE,145,0.0,0.0,94,0.00,,,0.00,0,Wunderground v.1.15,2013-08-01 04:22:00,
2013-08-01 00:27:00,60.3,58.9,30.01,SE,145,0.0,0.0,95,0.00,,,0.00,0,Wunderground v.1.15,2013-08-01 04:27:00,
2013-08-01 00:37:00,60.1,58.7,30.01,SE,145,0.0,0.0,95,0.00,,,0.00,0,Wunderground v.1.15,2013-08-01 04:37:00,
2013-08-01 00:42:00,60.0,58.6,30.01,SE,145,0.0,0.0,95,0.00,,,0.00,0,Wunderground v.1.15,2013-08-01 04:42:00,
2013-08-01 00:47:00,59.9,58.5,30.01,SE,145,0.0,0.0,95,0.00,,,0.00,0,Wunderground v.1.15,2013-08-01 04:47:00,
2013-08-01 00:52:00,59.8,58.4,30.01,SE,145,0.0,0.0,95,0.00,,,0.00,0,Wunderground v.1.15,2013-08-01 04:52:00,
2013-08-01 00:57:00,59.8,58.4,30.00,SE,145,0.0,0.0,95,0.00,,,0.00,0,Wunderground v.1.15,2013-08-01 04:57:00,
2013-08-01 01:02:00,59.7,58.3,30.00,SE,145,0.0,0.0,95,0.00,,,0.00,0,Wunderground v.1.15,2013-08-01 05:02:00,
2013-08-01 01:07:00,59.6,58.2,30.00,SE,145,0.0,0.0,95,0.00,,,0.00,0,Wunderground v.1.15,2013-08-01 05:07:00,
2013-08-01 01:12:00,59.6,58.2,30.00,SE,145,0.0,0.0,95,0.00,,,0.00,0,Wunderground v.1.15,2013-08-01 05:12:00,
2013-08-01 01:17:00,59.4,58.0,30.00,SE,145,0.0,0.0,95,0.00,,,0.00,0,Wunderground v.1.15,2013-08-01 05:17:00,
2013-08-01 01:22:00,59.2,57.8,30.00,SE,145,0.0,0.0,95,0.00,,,0.00,0,Wunderground v.1.15,2013-08-01 05:22:00,
2013-08-01 01:27:00,59.1,57.7,30.00,SE,145,0.0,0.0,95,0.00,,,0.00,0,Wunderground v.1.15,2013-08-01 05:27:00,
2013-08-01 01:32:00,59.0,57.6,30.00,SE,145,0.0,0.0,95,0.00,,,0.00,0,Wunderground v.1.15,2013-08-01 05:32:00,
2013-08-01 01:37:00,59.0,57.6,30.00,SE,145,0.0,0.0,95,0.00,,,0.00,0,Wunderground v.1.15,2013-08-01 05:37:00,
2013-08-01 01:42:00,58.9,57.5,30.00,SE,145,0.0,0.0,95,0.00,,,0.00,0,Wunderground v.1.15,2013-08-01 05:42:00,
2013-08-01 01:47:00,58.8,57.4,30.00,SE,145,0.0,0.0,95,0.00,,,0.00,0,Wunderground v.1.15,2013-08-01 05:47:00,
2013-08-01 01:52:00,58.7,57.3,30.00,SE,145,0.0,0.0,95,0.00,,,0.00,0,Wunderground v.1.15,2013-08-01 05:52:00,
2013-08-01 01:57:00,58.7,57.6,30.00,SE,145,0.0,0.0,96,0.00,,,0.00,0,Wunderground v.1.15,2013-08-01 05:57:00,
2013-08-01 02:02:00,58.8,57.7,30.00,SE,145,0.0,0.0,96,0.00,,,0.00,0,Wunderground v.1.15,2013-08-01 06:02:00,
2013-08-01 02:07:00,58.8,57.7,30.00,SE,145,0.0,0.0,96,0.00,,,0.00,0,Wunderground v.1.15,2013-08-01 06:07:00,
2013-08-01 02:12:00,58.8,57.7,29.99,SE,145,0.0,0.0,96,0.00,,,0.00,0,Wunderground v.1.15,2013-08-01 06:12:00,
2013-08-01 02:22:00,58.7,57.6,29.99,SE,145,0.0,0.0,96,0.00,,,0.00,0,Wunderground v.1.15,2013-08-01 06:22:00,
2013-08-01 02:27:00,58.6,57.5,29.99,SE,145,0.0,0.0,96,0.00,,,0.00,0,Wunderground v.1.15,2013-08-01 06:27:00,
2013-08-01 02:32:00,58.5,57.4,29.99,SE,145,0.0,0.0,96,0.00,,,0.00,0,Wunderground v.1.15,2013-08-01 06:32:00,
2013-08-01 02:37:00,58.4,57.3,29.99,SE,145,0.0,0.0,96,0.00,,,0.00,0,Wunderground v.1.15,2013-08-01 06:37:00,
2013-08-01 02:42:00,58.3,57.2,29.99,SE,145,0.0,0.0,96,0.00,,,0.00,0,Wunderground v.1.15,2013-08-01 06:42:00,
2013-08-01 02:47:00,58.2,57.1,29.98,SE,145,0.0,0.0,96,0.00,,,0.00,0,Wunderground v.1.15,2013-08-01 06:47:00,
2013-08-01 02:52:00,58.2,57.1,29.98,SE,145,0.0,0.0,96,0.00,,,0.00,0,Wunderground v.1.15,2013-08-01 06:52:00,
2013-08-01 02:57:00,58.1,57.0,29.98,SE,145,0.0,0.0,96,0.00,,,0.00,0,Wunderground v.1.15,2013-08-01 06:57:00,
2013-08-01 03:02:00,58.0,56.9,29.98,SE,145,0.0,0.0,96,0.00,,,0.00,0,Wunderground v.1.15,2013-08-01 07:02:00,
2013-08-01 03:07:00,57.9,56.8,29.98,SE,145,0.0,0.0,96,0.00,,,0.00,0,Wunderground v.1.15,2013-08-01 07:07:00,
2013-08-01 03:12:00,57.8,56.7,29.98,SE,145,0.0,0.0,96,0.00,,,0.00,0,Wunderground v.1.15,2013-08-01 07:12:00,
2013-08-01 03:22:00,57.7,56.6,29.98,SE,145,0.0,0.0,96,0.00,,,0.00,0,Wunderground v.1.15,2013-08-01 07:22:00,
2013-08-01 03:27:00,57.7,56.6,29.98,SE,145,0.0,0.0,96,0.00,,,0.00,0,Wunderground v.1.15,2013-08-01 07:27:00,
2013-08-01 03:32:00,57.7,56.6,29.98,SE,145,0.0,0.0,96,0.00,,,0.00,0,Wunderground v.1.15,2013-08-01 07:32:00,
2013-08-01 03:37:00,57.8,57.0,29.97,SE,145,0.0,0.0,97,0.00,,,0.00,0,Wunderground v.1.15,2013-08-01 07:37:00,
2013-08-01 03:42:00,57.8,56.7,29.97,SE,145,0.0,0.0,96,0.00,,,0.00,0,Wunderground v.1.15,2013-08-01 07:42:00,
2013-08-01 03:47:00,57.7,56.6,29.97,SE,145,0.0,0.0,96,0.00,,,0.00,0,Wunderground v.1.15,2013-08-01 07:47:00,
2013-08-01 03:52:00,57.7,56.6,29.97,SE,145,0.0,0.0,96,0.00,,,0.00,0,Wunderground v.1.15,2013-08-01 07:52:00,
2013-08-01 03:57:00,57.7,56.9,29.97,SE,145,0.0,0.0,97,0.00,,,0.00,0,Wunderground v.1.15,2013-08-01 07:57:00,
2013-08-01 04:02:00,57.7,56.9,29.97,SE,145,0.0,0.0,97,0.00,,,0.00,0,Wunderground v.1.15,2013-08-01 08:02:00,
2013-08-01 04:12:00,57.6,56.8,29.96,SE,145,0.0,0.0,97,0.00,,,0.00,0,Wunderground v.1.15,2013-08-01 08:12:00,
2013-08-01 04:17:00,57.7,56.9,29.96,SE,145,0.0,0.0,97,0.00,,,0.00,0,Wunderground v.1.15,2013-08-01 08:17:00,
2013-08-01 04:22:00,57.6,56.8,29.96,SE,145,0.0,0.0,97,0.00,,,0.00,0,Wunderground v.1.15,2013-08-01 08:22:00,
2013-08-01 04:27:00,57.6,56.8,29.96,SE,145,0.0,0.0,97,0.00,,,0.00,0,Wunderground v.1.15,2013-08-01 08:27:00,
2013-08-01 04:32:00,57.6,56.8,29.96,SE,145,0.0,0.0,97,0.00,,,0.00,0,Wunderground v.1.15,2013-08-01 08:32:00,
2013-08-01 04:37:00,57.6,56.8,29.96,SE,145,0.0,0.0,97,0.00,,,0.00,0,Wunderground v.1.15,2013-08-01 08:37:00,
2013-08-01 04:42:00,57.5,56.7,29.96,SE,145,0.0,0.0,97,0.00,,,0.00,0,Wunderground v.1.15,2013-08-01 08:42:00,
2013-08-01 04:52:00,57.3,56.2,29.96,SE,145,0.0,0.0,96,0.00,,,0.00,0,Wunderground v.1.15,2013-08-01 08:52:00,
2013-08-01 04:57:00,57.2,56.1,29.96,SE,145,0.0,0.0,96,0.00,,,0.00,0,Wunderground v.1.15,2013-08-01 08:57:00,
2013-08-01 05:12:00,56.8,55.7,29.97,SE,145,0.0,0.0,96,0.00,,,0.00,0,Wunderground v.1.15,2013-08-01 09:12:00,
2013-08-01 05:32:00,56.5,55.4,29.97,SE,145,0.0,0.0,96,0.00,,,0.00,0,Wunderground v.1.15,2013-08-01 09:32:00,
2013-08-01 05:57:00,56.3,55.5,29.97,SE,145,0.0,0.0,97,0.00,,,0.00,11,Wunderground v.1.15,2013-08-01 09:57:00,
2013-08-01 06:02:00,56.3,55.5,29.97,SE,145,0.0,0.0,97,0.00,,,0.00,12,Wunderground v.1.15,2013-08-01 10:02:00,
2013-08-01 06:07:00,56.3,55.5,29.97,SE,145,0.0,0.0,97,0.00,,,0.00,16,Wunderground v.1.15,2013-08-01 10:07:00,
2013-08-01 06:22:00,56.8,56.0,29.97,SE,145,0.0,0.0,97,0.00,,,0.00,84,Wunderground v.1.15,2013-08-01 10:22:00,
2013-08-01 06:27:00,57.2,56.4,29.97,SE,145,0.0,0.0,97,0.00,,,0.00,98,Wunderground v.1.15,2013-08-01 10:27:00,
2013-08-01 06:37:00,57.8,56.7,29.97,SE,145,0.0,0.0,96,0.00,,,0.00,86,Wunderground v.1.15,2013-08-01 10:37:00,
2013-08-01 06:57:00,58.6,57.8,29.97,SE,145,0.0,0.0,97,0.00,,,0.00,100,Wunderground v.1.15,2013-08-01 10:57:00,
2013-08-01 07:02:00,59.0,57.6,29.97,SE,145,0.0,0.0,95,0.00,,,0.00,176,Wunderground v.1.15,2013-08-01 11:02:00,
2013-08-01 07:12:00,59.8,58.4,29.97,SE,145,0.0,0.0,95,0.00,,,0.00,213,Wunderground v.1.15,2013-08-01 11:12:00,
2013-08-01 07:17:00,60.4,58.7,29.97,SE,142,0.0,0.0,94,0.00,,,0.00,229,Wunderground v.1.15,2013-08-01 11:17:00,
2013-08-01 07:32:00,61.8,59.1,29.97,East,96,0.0,0.0,91,0.00,,,0.00,276,Wunderground v.1.15,2013-08-01 11:32:00,
2013-08-01 07:37:00,62.1,59.4,29.97,East,96,0.0,0.0,91,0.00,,,0.00,299,Wunderground v.1.15,2013-08-01 11:37:00,
2013-08-01 07:42:00,62.4,59.4,29.97,East,92,1.0,1.0,90,0.00,,,0.00,318,Wunderground v.1.15,2013-08-01 11:42:00,
2013-08-01 07:47:00,62.7,59.7,29.97,East,92,0.0,1.0,90,0.00,,,0.00,339,Wunderground v.1.15,2013-08-01 11:47:00,
2013-08-01 07:52:00,63.3,60.3,29.97,East,92,0.0,1.0,90,0.00,,,0.00,355,Wunderground v.1.15,2013-08-01 11:52:00,
2013-08-01 07:57:00,63.9,60.6,29.97,East,92,0.0,0.0,89,0.00,,,0.00,369,Wunderground v.1.15,2013-08-01 11:57:00,
2013-08-01 08:02:00,64.4,60.8,29.97,ESE,120,0.0,0.0,88,0.00,,,0.00,385,Wunderground v.1.15,2013-08-01 12:02:00,
2013-08-01 08:07:00,65.0,61.0,29.97,East,82,0.0,0.0,87,0.00,,,0.00,399,Wunderground v.1.15,2013-08-01 12:07:00,
2013-08-01 08:17:00,65.9,60.9,29.97,East,79,1.0,1.0,84,0.00,,,0.00,429,Wunderground v.1.15,2013-08-01 12:17:00,
2013-08-01 08:22:00,66.1,60.8,29.97,East,80,1.0,2.0,83,0.00,,,0.00,445,Wunderground v.1.15,2013-08-01 12:22:00,
2013-08-01 08:27:00,66.3,61.0,29.96,East,87,1.0,1.0,83,0.00,,,0.00,461,Wunderground v.1.15,2013-08-01 12:27:00,
2013-08-01 08:37:00,67.0,61.7,29.96,ESE,114,1.0,1.0,83,0.00,,,0.00,492,Wunderground v.1.15,2013-08-01 12:37:00,
2013-08-01 08:47:00,67.8,61.8,29.96,ESE,121,1.0,1.0,81,0.00,,,0.00,519,Wunderground v.1.15,2013-08-01 12:47:00,
2013-08-01 08:57:00,68.5,62.1,29.95,SE,132,1.0,1.0,80,0.00,,,0.00,548,Wunderground v.1.15,2013-08-01 12:57:00,
2013-08-01 09:12:00,69.7,62.9,29.95,East,97,2.0,2.0,79,0.00,,,0.00,587,Wunderground v.1.15,2013-08-01 13:12:00,
2013-08-01 09:27:00,70.6,63.0,29.94,ESE,103,1.0,1.0,77,0.00,,,0.00,631,Wunderground v.1.15,2013-08-01 13:27:00,
2013-08-01 09:37:00,71.3,63.3,29.93,ESE,114,1.0,1.0,76,0.00,,,0.00,656,Wunderground v.1.15,2013-08-01 13:37:00,
2013-08-01 09:47:00,71.9,63.9,29.93,NW,314,2.0,2.0,76,0.00,,,0.00,657,Wunderground v.1.15,2013-08-01 13:47:00,
2013-08-01 09:52:00,72.5,64.1,29.93,East,89,2.0,4.0,75,0.00,,,0.00,666,Wunderground v.1.15,2013-08-01 13:52:00,
2013-08-01 09:57:00,72.6,64.2,29.93,East,86,2.0,3.0,75,0.00,,,0.00,691,Wunderground v.1.15,2013-08-01 13:57:00,
2013-08-01 10:02:00,73.2,64.4,29.93,East,79,2.0,3.0,74,0.00,,,0.00,717,Wunderground v.1.15,2013-08-01 14:02:00,
2013-08-01 10:17:00,74.2,64.6,29.92,NE,55,2.0,2.0,72,0.00,,,0.00,756,Wunderground v.1.15,2013-08-01 14:17:00,
2013-08-01 10:22:00,74.9,64.9,29.92,ENE,77,2.0,3.0,71,0.00,,,0.00,775,Wunderground v.1.15,2013-08-01 14:22:00,
2013-08-01 10:37:00,76.4,65.1,29.91,ESE,121,3.0,3.0,68,0.00,,,0.00,905,Wunderground v.1.15,2013-08-01 14:37:00,
2013-08-01 10:47:00,77.8,65.1,29.91,SE,138,3.0,3.0,65,0.00,,,0.00,930,Wunderground v.1.15,2013-08-01 14:47:00,
2013-08-01 10:57:00,78.5,64.4,29.90,NNE,26,3.0,3.0,62,0.00,,,0.00,278,Wunderground v.1.15,2013-08-01 14:57:00,
2013-08-01 11:02:00,78.3,63.7,29.90,WNW,292,3.0,3.0,61,0.00,,,0.00,935,Wunderground v.1.15,2013-08-01 15:02:00,
2013-08-01 11:32:00,79.6,61.5,29.89,ENE,67,5.0,5.0,54,0.00,,,0.00,946,Wunderground v.1.15,2013-08-01 15:32:00,
2013-08-01 11:37:00,79.8,61.1,29.89,SSE,155,5.0,9.0,53,0.00,,,0.00,923,Wunderground v.1.15,2013-08-01 15:37:00,
2013-08-01 11:42:00,79.6,61.0,29.89,SE,132,6.0,9.0,53,0.00,,,0.00,946,Wunderground v.1.15,2013-08-01 15:42:00,
2013-08-01 11:57:00,79.6,61.0,29.89,SW,231,6.0,6.0,53,0.00,,,0.00,346,Wunderground v.1.15,2013-08-01 15:57:00,
2013-08-01 12:02:00,79.3,60.7,29.89,SE,137,6.0,7.0,53,0.00,,,0.00,443,Wunderground v.1.15,2013-08-01 16:02:00,
2013-08-01 12:07:00,79.3,60.7,29.89,SSE,150,5.0,5.0,53,0.00,,,0.00,236,Wunderground v.1.15,2013-08-01 16:07:00,
2013-08-01 12:17:00,78.7,61.7,29.89,SE,138,3.0,9.0,56,0.00,,,0.00,490,Wunderground v.1.15,2013-08-01 16:17:00,
2013-08-01 12:22:00,78.9,60.8,29.88,SW,219,3.0,9.0,54,0.00,,,0.00,330,Wunderground v.1.15,2013-08-01 16:22:00,
2013-08-01 12:27:00,79.0,61.5,29.88,SE,135,4.0,5.0,55,0.00,,,0.00,962,Wunderground v.1.15,2013-08-01 16:27:00,
2013-08-01 12:42:00,79.4,61.8,29.87,SE,136,3.0,4.0,55,0.00,,,0.00,288,Wunderground v.1.15,2013-08-01 16:42:00,
2013-08-01 12:47:00,79.7,62.6,29.88,ESE,120,3.0,3.0,56,0.00,,,0.00,383,Wunderground v.1.15,2013-08-01 16:47:00,
2013-08-01 12:52:00,80.0,61.3,29.87,ESE,123,4.0,5.0,53,0.00,,,0.00,396,Wunderground v.1.15,2013-08-01 16:52:00,
2013-08-01 12:57:00,79.5,61.9,29.88,SE,133,5.0,5.0,55,0.00,,,0.00,244,Wunderground v.1.15,2013-08-01 16:57:00,
2013-08-01 13:07:00,78.8,62.3,29.87,SE,142,3.0,3.0,57,0.00,,,0.00,439,Wunderground v.1.15,2013-08-01 17:07:00,
2013-08-01 13:12:00,79.1,63.1,29.87,SSE,167,3.0,3.0,58,0.00,,,0.00,360,Wunderground v.1.15,2013-08-01 17:12:00,
2013-08-01 13:22:00,79.4,63.3,29.86,SE,136,4.0,13.0,58,0.00,,,0.00,761,Wunderground v.1.15,2013-08-01 17:22:00,
2013-08-01 13:32:00,79.0,63.0,29.86,SE,140,8.0,8.0,58,0.00,,,0.00,1102,Wunderground v.1.15,2013-08-01 17:32:00,
2013-08-01 13:37:00,79.4,63.3,29.86,ESE,120,7.0,7.0,58,0.00,,,0.00,759,Wunderground v.1.15,2013-08-01 17:37:00,
2013-08-01 13:42:00,79.8,63.2,29.86,SE,128,5.0,7.0,57,0.00,,,0.00,823,Wunderground v.1.15,2013-08-01 17:42:00,
2013-08-01 13:47:00,80.2,64.1,29.86,SSE,155,5.0,6.0,58,0.00,,,0.00,993,Wunderground v.1.15,2013-08-01 17:47:00,
2013-08-01 13:52:00,80.1,63.0,29.85,SE,140,5.0,6.0,56,0.00,,,0.00,257,Wunderground v.1.15,2013-08-01 17:52:00,
2013-08-01 13:57:00,79.3,63.2,29.86,SE,135,6.0,8.0,58,0.00,,,0.00,139,Wunderground v.1.15,2013-08-01 17:57:00,
2013-08-01 14:02:00,78.5,63.5,29.86,SE,141,5.0,8.0,60,0.00,,,0.00,77,Wunderground v.1.15,2013-08-01 18:02:00,
2013-08-01 14:17:00,76.9,66.4,29.85,SE,142,1.0,1.0,70,0.00,,,0.00,163,Wunderground v.1.15,2013-08-01 18:17:00,
2013-08-01 14:27:00,75.9,67.8,29.85,ESE,105,0.0,0.0,76,0.00,,,0.00,190,Wunderground v.1.15,2013-08-01 18:27:00,
2013-08-01 14:32:00,75.7,68.4,29.85,ESE,114,1.0,1.0,78,0.00,,,0.00,167,Wunderground v.1.15,2013-08-01 18:32:00,
2013-08-01 14:37:00,75.4,68.1,29.85,ESE,114,1.0,1.0,78,0.00,,,0.00,139,Wunderground v.1.15,2013-08-01 18:37:00,
2013-08-01 14:42:00,75.4,66.1,29.85,SE,130,1.0,4.0,73,0.00,,,0.00,155,Wunderground v.1.15,2013-08-01 18:42:00,
2013-08-01 15:02:00,75.3,64.8,29.84,ESE,113,4.0,4.0,70,0.00,,,0.00,190,Wunderground v.1.15,2013-08-01 19:02:00,
2013-08-01 15:07:00,75.3,65.2,29.84,SE,128,3.0,3.0,71,0.00,,,0.00,204,Wunderground v.1.15,2013-08-01 19:07:00,
2013-08-01 15:17:00,75.6,65.1,29.84,East,96,2.0,3.0,70,0.00,,,0.00,141,Wunderground v.1.15,2013-08-01 19:17:00,
2013-08-01 15:22:00,75.7,65.6,29.84,SSW,196,2.0,3.0,71,0.00,,,0.00,105,Wunderground v.1.15,2013-08-01 19:22:00,
2013-08-01 15:27:00,75.6,65.1,29.84,South,176,2.0,3.0,70,0.00,,,0.00,84,Wunderground v.1.15,2013-08-01 19:27:00,
2013-08-01 15:32:00,75.5,65.4,29.84,SSW,198,1.0,3.0,71,0.00,,,0.00,58,Wunderground v.1.15,2013-08-01 19:32:00,
2013-08-01 15:37:00,75.3,64.8,29.85,SSW,197,1.0,1.0,70,0.00,,,0.00,32,Wunderground v.1.15,2013-08-01 19:37:00,
2013-08-01 15:47:00,74.0,66.0,29.85,SSW,208,1.0,1.0,76,0.00,,,0.00,54,Wunderground v.1.15,2013-08-01 19:47:00,
2013-08-01 16:12:00,72.8,66.3,29.85,NW,305,0.0,1.0,80,0.00,,,0.00,91,Wunderground v.1.15,2013-08-01 20:12:00,
2013-08-01 16:17:00,72.6,65.7,29.86,NW,304,0.0,1.0,79,0.00,,,0.00,83,Wunderground v.1.15,2013-08-01 20:17:00,
2013-08-01 16:22:00,72.5,66.7,29.86,WNW,299,1.0,4.0,82,0.00,,,0.00,44,Wunderground v.1.15,2013-08-01 20:22:00,
2013-08-01 16:32:00,70.3,65.9,29.87,SSW,204,3.0,7.0,86,1.29,,,0.11,32,Wunderground v.1.15,2013-08-01 20:32:00,
2013-08-01 16:37:00,69.0,64.3,29.87,WNW,295,4.0,4.0,85,0.32,,,0.15,58,Wunderground v.1.15,2013-08-01 20:37:00,
2013-08-01 16:42:00,68.5,64.8,29.87,WSW,254,4.0,4.0,88,0.13,,,0.17,81,Wunderground v.1.15,2013-08-01 20:42:00,
2013-08-01 16:52:00,68.0,65.0,29.86,SW,225,1.0,2.0,90,0.06,,,0.18,54,Wunderground v.1.15,2013-08-01 20:52:00,
2013-08-01 17:02:00,67.9,65.2,29.86,SSW,211,0.0,0.0,91,0.06,,,0.18,70,Wunderground v.1.15,2013-08-01 21:02:00,
2013-08-01 17:17:00,68.3,66.2,29.86,SE,143,0.0,0.0,93,0.00,,,0.19,46,Wunderground v.1.15,2013-08-01 21:17:00,
2013-08-01 17:27:00,68.2,66.1,29.85,SE,143,0.0,0.0,93,0.00,,,0.19,21,Wunderground v.1.15,2013-08-01 21:27:00,
2013-08-01 17:32:00,68.1,66.3,29.85,SE,143,0.0,0.0,94,0.00,,,0.19,21,Wunderground v.1.15,2013-08-01 21:32:00,
2013-08-01 17:42:00,68.0,66.2,29.85,SE,140,0.0,0.0,94,0.00,,,0.19,19,Wunderground v.1.15,2013-08-01 21:42:00,
2013-08-01 17:52:00,67.9,66.1,29.85,West,275,0.0,0.0,94,0.00,,,0.19,18,Wunderground v.1.15,2013-08-01 21:52:00,
2013-08-01 17:57:00,67.9,65.8,29.85,South,190,0.0,0.0,93,0.00,,,0.19,18,Wunderground v.1.15,2013-08-01 21:57:00,
2013-08-01 18:02:00,67.9,65.8,29.85,SSW,208,0.0,0.0,93,0.00,,,0.19,14,Wunderground v.1.15,2013-08-01 22:02:00,
2013-08-01 18:07:00,67.9,65.5,29.86,WSW,244,1.0,1.0,92,0.00,,,0.19,12,Wunderground v.1.15,2013-08-01 22:07:00,
2013-08-01 18:12:00,68.0,65.3,29.85,WSW,242,1.0,3.0,91,0.00,,,0.19,14,Wunderground v.1.15,2013-08-01 22:12:00,
2013-08-01 18:17:00,68.1,65.1,29.85,South,180,2.0,2.0,90,0.00,,,0.19,12,Wunderground v.1.15,2013-08-01 22:17:00,
2013-08-01 18:22:00,68.1,65.1,29.85,SSW,211,2.0,2.0,90,0.00,,,0.19,16,Wunderground v.1.15,2013-08-01 22:22:00,
2013-08-01 18:27:00,68.0,64.6,29.85,ESE,111,2.0,3.0,89,0.00,,,0.19,19,Wunderground v.1.15,2013-08-01 22:27:00,
2013-08-01 18:32:00,68.0,65.0,29.85,East,90,2.0,3.0,90,0.00,,,0.19,25,Wunderground v.1.15,2013-08-01 22:32:00,
2013-08-01 18:37:00,67.9,64.5,29.85,WSW,253,1.0,1.0,89,0.00,,,0.19,25,Wunderground v.1.15,2013-08-01 22:37:00,
2013-08-01 18:42:00,67.8,64.4,29.85,SSW,194,1.0,1.0,89,0.00,,,0.19,25,Wunderground v.1.15,2013-08-01 22:42:00,
2013-08-01 18:47:00,67.7,64.3,29.85,West,271,0.0,0.0,89,0.00,,,0.19,19,Wunderground v.1.15,2013-08-01 22:47:00,
2013-08-01 18:52:00,67.6,64.9,29.86,WSW,258,0.0,0.0,91,0.00,,,0.19,14,Wunderground v.1.15,2013-08-01 22:52:00,
2013-08-01 18:57:00,67.5,64.1,29.86,West,263,0.0,0.0,89,0.00,,,0.19,9,Wunderground v.1.15,2013-08-01 22:57:00,
2013-08-01 19:02:00,67.5,64.5,29.85,West,263,0.0,0.0,90,0.00,,,0.19,7,Wunderground v.1.15,2013-08-01 23:02:00,
2013-08-01 19:07:00,67.4,64.7,29.85,West,263,0.0,0.0,91,0.00,,,0.19,5,Wunderground v.1.15,2013-08-01 23:07:00,
2013-08-01 19:12:00,67.1,64.7,29.85,West,265,0.0,0.0,92,0.00,,,0.19,5,Wunderground v.1.15,2013-08-01 23:12:00,
2013-08-01 19:22:00,67.0,64.0,29.86,West,269,1.0,2.0,90,0.00,,,0.19,7,Wunderground v.1.15,2013-08-01 23:22:00,
2013-08-01 19:42:00,66.8,64.1,29.86,WSW,251,1.0,1.0,91,0.00,,,0.19,0,Wunderground v.1.15,2013-08-01 23:42:00,
2013-08-01 19:47:00,66.7,64.0,29.86,WSW,251,0.0,1.0,91,0.00,,,0.19,0,Wunderground v.1.15,2013-08-01 23:47:00,
2013-08-01 19:52:00,66.6,63.3,29.86,SW,236,0.0,1.0,89,0.00,,,0.19,0,Wunderground v.1.15,2013-08-01 23:52:00,
2013-08-01 19:57:00,66.7,63.7,29.86,WSW,246,0.0,0.0,90,0.00,,,0.19,0,Wunderground v.1.15,2013-08-01 23:57:00,
2013-08-01 20:02:00,66.6,63.3,29.86,WSW,237,0.0,0.0,89,0.00,,,0.19,0,Wunderground v.1.15,2013-08-02 00:02:00,
2013-08-01 20:12:00,66.7,63.0,29.86,SW,232,1.0,1.0,88,0.00,,,0.19,0,Wunderground v.1.15,2013-08-02 00:12:00,
2013-08-01 20:17:00,66.6,62.9,29.86,NW,306,2.0,3.0,88,0.00,,,0.19,0,Wunderground v.1.15,2013-08-02 00:17:00,
2013-08-01 20:22:00,66.5,62.8,29.86,South,169,2.0,3.0,88,0.00,,,0.19,0,Wunderground v.1.15,2013-08-02 00:22:00,
2013-08-01 20:27:00,66.5,62.8,29.86,NNW,348,1.0,1.0,88,0.00,,,0.19,0,Wunderground v.1.15,2013-08-02 00:27:00,
2013-08-01 20:32:00,66.4,62.7,29.86,NNW,327,0.0,3.0,88,0.00,,,0.19,0,Wunderground v.1.15,2013-08-02 00:32:00,
2013-08-01 20:37:00,66.3,63.3,29.86,West,264,1.0,1.0,90,0.00,,,0.19,0,Wunderground v.1.15,2013-08-02 00:37:00,
2013-08-01 20:42:00,66.3,63.0,29.86,SW,223,1.0,1.0,89,0.00,,,0.19,0,Wunderground v.1.15,2013-08-02 00:42:00,
2013-08-01 20:52:00,66.2,62.9,29.86,WSW,238,1.0,3.0,89,0.00,,,0.19,0,Wunderground v.1.15,2013-08-02 00:52:00,
2013-08-01 20:57:00,66.2,62.5,29.86,SSE,156,2.0,2.0,88,0.00,,,0.19,0,Wunderground v.1.15,2013-08-02 00:57:00,
2013-08-01 21:02:00,66.2,62.9,29.86,WSW,256,1.0,2.0,89,0.00,,,0.19,0,Wunderground v.1.15,2013-08-02 01:02:00,
2013-08-01 21:07:00,66.1,62.8,29.86,West,279,1.0,1.0,89,0.00,,,0.19,0,Wunderground v.1.15,2013-08-02 01:07:00,
2013-08-01 21:12:00,66.0,63.0,29.85,WSW,243,1.0,1.0,90,0.00,,,0.20,0,Wunderground v.1.15,2013-08-02 01:12:00,
2013-08-01 21:22:00,65.5,62.8,29.86,WSW,244,0.0,1.0,91,0.06,,,0.21,0,Wunderground v.1.15,2013-08-02 01:22:00,
2013-08-01 21:27:00,65.2,63.1,29.85,WNW,294,0.0,0.0,93,0.24,,,0.24,0,Wunderground v.1.15,2013-08-02 01:27:00,
2013-08-01 21:32:00,65.0,62.9,29.85,WNW,294,0.0,0.0,93,0.15,,,0.25,0,Wunderground v.1.15,2013-08-02 01:32:00,
2013-08-01 21:37:00,64.9,63.1,29.85,WNW,294,0.0,0.0,94,0.07,,,0.25,0,Wunderground v.1.15,2013-08-02 01:37:00,
2013-08-01 21:42:00,64.8,63.0,29.85,WNW,294,0.0,0.0,94,0.05,,,0.25,0,Wunderground v.1.15,2013-08-02 01:42:00,
2013-08-01 21:47:00,64.7,63.2,29.85,WNW,294,0.0,0.0,95,0.00,,,0.25,0,Wunderground v.1.15,2013-08-02 01:47:00,
2013-08-01 21:52:00,64.7,63.2,29.85,WNW,294,0.0,0.0,95,0.00,,,0.25,0,Wunderground v.1.15,2013-08-02 01:52:00,
2013-08-01 21:57:00,64.6,62.8,29.85,SW,236,0.0,2.0,94,0.00,,,0.25,0,Wunderground v.1.15,2013-08-02 01:57:00,
2013-08-01 22:02:00,64.7,63.2,29.85,ENE,77,1.0,2.0,95,0.00,,,0.25,0,Wunderground v.1.15,2013-08-02 02:02:00,
2013-08-01 22:27:00,64.5,62.1,29.85,SW,223,2.0,2.0,92,0.40,,,0.29,0,Wunderground v.1.15,2013-08-02 02:27:00,
2013-08-01 22:32:00,64.4,62.0,29.85,SW,222,1.0,2.0,92,0.14,,,0.31,0,Wunderground v.1.15,2013-08-02 02:32:00,
2013-08-01 22:37:00,64.3,61.9,29.84,WNW,298,1.0,1.0,92,0.07,,,0.31,0,Wunderground v.1.15,2013-08-02 02:37:00,
2013-08-01 22:42:00,64.3,62.2,29.84,ENE,57,0.0,1.0,93,0.04,,,0.31,0,Wunderground v.1.15,2013-08-02 02:42:00,
2013-08-01 22:47:00,64.2,62.1,29.84,NW,311,0.0,0.0,93,0.00,,,0.31,0,Wunderground v.1.15,2013-08-02 02:47:00,
2013-08-01 22:52:00,64.1,62.3,29.84,NW,311,0.0,0.0,94,0.00,,,0.31,0,Wunderground v.1.15,2013-08-02 02:52:00,
2013-08-01 22:57:00,64.1,62.3,29.84,NW,311,0.0,0.0,94,0.00,,,0.31,0,Wunderground v.1.15,2013-08-02 02:57:00,
2013-08-01 23:02:00,64.0,62.2,29.84,NW,311,0.0,0.0,94,0.00,,,0.31,0,Wunderground v.1.15,2013-08-02 03:02:00,
2013-08-01 23:07:00,64.0,62.5,29.84,NW,311,0.0,0.0,95,0.00,,,0.32,0,Wunderground v.1.15,2013-08-02 03:07:00,
2013-08-01 23:12:00,63.8,62.3,29.84,NW,311,0.0,0.0,95,0.00,,,0.32,0,Wunderground v.1.15,2013-08-02 03:12:00,
2013-08-01 23:17:00,63.7,62.2,29.84,NW,311,0.0,0.0,95,0.00,,,0.32,0,Wunderground v.1.15,2013-08-02 03:17:00,
2013-08-01 23:22:00,63.6,62.1,29.83,NW,311,0.0,0.0,95,0.00,,,0.32,0,Wunderground v.1.15,2013-08-02 03:22:00,
2013-08-01 23:27:00,63.5,62.0,29.83,NW,311,0.0,0.0,95,0.00,,,0.32,0,Wunderground v.1.15,2013-08-02 03:27:00,
2013-08-01 23:32:00,63.5,62.0,29.83,NW,311,0.0,0.0,95,0.00,,,0.32,0,Wunderground v.1.15,2013-08-02 03:32:00,
2013-08-01 23:42:00,63.5,62.3,29.83,NW,311,0.0,0.0,96,0.00,,,0.32,0,Wunderground v.1.15,2013-08-02 03:42:00,
2013-08-01 23:52:00,63.7,62.5,29.83,NW,311,0.0,0.0,96,0.00,,,0.32,0,Wunderground v.1.15,2013-08-02 03:52:00,